createdAt,value
2022-08-20T10:02:44.609Z,4.25
2022-08-20T10:05:16.844Z,3.60
2022-08-20T10:07:48.942Z,4.03
2022-08-20T10:10:21.071Z,4.20
2022-08-20T10:12:55.084Z,4.10
2022-08-20T10:15:28.986Z,3.78
2022-08-20T10:18:05.547Z,4.28
2022-08-20T10:20:38.691Z,4.55
2022-08-20T10:23:11.147Z,4.05
2022-08-20T10:25:43.237Z,3.80
2022-08-20T10:28:15.289Z,4.65
2022-08-20T10:30:48.657Z,4.32
2022-08-20T10:33:21.074Z,3.92
2022-08-20T10:35:56.819Z,4.22
2022-08-20T10:38:32.066Z,4.20
2022-08-20T10:41:04.193Z,3.75
2022-08-20T10:43:36.442Z,4.15
2022-08-20T10:46:10.038Z,4.18
2022-08-20T10:48:42.131Z,3.75
2022-08-20T10:51:14.126Z,4.53
2022-08-20T10:53:46.248Z,3.80
2022-08-20T10:56:18.346Z,4.40
2022-08-20T10:58:50.417Z,4.03
2022-08-20T11:01:31.560Z,3.78
2022-08-20T11:04:06.158Z,3.80
2022-08-20T11:06:38.151Z,4.75
2022-08-20T11:09:10.344Z,4.15
2022-08-20T11:11:42.429Z,3.78
2022-08-20T11:14:14.512Z,4.13
2022-08-20T11:16:47.926Z,4.18
2022-08-20T11:19:20.038Z,3.97
2022-08-20T11:21:52.120Z,4.00
2022-08-20T11:24:24.199Z,3.97
2022-08-20T11:26:56.931Z,3.90
2022-08-20T11:29:33.391Z,3.92
2022-08-20T11:32:07.443Z,4.50
2022-08-20T11:34:39.601Z,3.50
2022-08-20T11:37:13.729Z,3.70
2022-08-20T11:39:46.072Z,3.55
2022-08-20T11:42:18.217Z,3.95
2022-08-20T11:44:50.419Z,4.30
2022-08-20T11:47:26.717Z,3.88
2022-08-20T11:50:00.593Z,3.60
2022-08-20T11:52:32.829Z,3.58
2022-08-20T11:55:06.747Z,3.67
2022-08-20T11:57:43.613Z,3.55
2022-08-20T12:00:19.427Z,3.47
2022-08-20T12:02:52.933Z,3.55
2022-08-20T12:05:27.391Z,3.17
2022-08-20T12:08:02.186Z,3.33
2022-08-20T12:10:34.331Z,3.60
2022-08-20T12:13:07.389Z,3.13
2022-08-20T12:15:39.891Z,3.35
2022-08-20T12:18:13.391Z,2.60
2022-08-20T12:20:45.556Z,2.90
2022-08-20T12:23:17.687Z,2.92
2022-08-20T12:25:49.945Z,3.03
2022-08-20T12:28:25.954Z,3.38
2022-08-20T12:30:58.507Z,3.17
2022-08-20T12:33:31.917Z,3.05
2022-08-20T12:36:04.688Z,3.13
2022-08-20T12:38:36.729Z,3.55
2022-08-20T12:41:08.869Z,3.38
2022-08-20T12:43:41.018Z,2.72
2022-08-20T12:46:13.104Z,3.03
2022-08-20T12:48:46.721Z,3.00
2022-08-20T12:51:18.751Z,3.08
2022-08-20T12:53:50.765Z,2.40
2022-08-20T12:56:22.830Z,2.55
2022-08-20T12:58:54.950Z,2.67
2022-08-20T13:01:27.054Z,2.40
2022-08-20T13:04:00.579Z,2.88
2022-08-20T13:06:32.681Z,2.42
2022-08-20T13:09:04.817Z,1.92
2022-08-20T13:11:36.887Z,2.30
2022-08-20T13:14:08.883Z,2.92
2022-08-20T13:16:42.096Z,2.63
2022-08-20T13:19:15.476Z,2.75
2022-08-20T13:21:54.747Z,2.70
2022-08-20T13:24:27.203Z,2.53
2022-08-20T13:27:05.346Z,2.72
2022-08-20T13:29:37.805Z,2.38
2022-08-20T13:32:10.664Z,2.33
2022-08-20T13:34:45.367Z,1.75
2022-08-20T13:37:24.463Z,2.25
2022-08-20T13:39:58.665Z,2.13
2022-08-20T13:42:30.777Z,2.10
2022-08-20T13:45:03.441Z,1.90
2022-08-20T13:47:37.661Z,2.17
2022-08-20T13:50:15.613Z,1.90
2022-08-20T13:52:48.420Z,1.92
2022-08-20T13:55:22.877Z,2.28
2022-08-20T13:57:56.434Z,2.30
2022-08-20T14:00:32.366Z,2.42
2022-08-20T14:03:06.381Z,1.85
2022-08-20T14:05:39.935Z,2.00
2022-08-20T14:08:15.386Z,2.38
2022-08-20T14:10:51.643Z,1.90
2022-08-20T14:13:25.829Z,1.92
2022-08-20T14:15:57.886Z,2.03
2022-08-20T14:18:30.900Z,1.65
2022-08-20T14:21:04.293Z,1.90
2022-08-20T14:23:36.927Z,2.00
2022-08-20T14:26:09.162Z,2.30
2022-08-20T14:28:41.400Z,1.75
2022-08-20T14:31:13.412Z,1.70
2022-08-20T14:33:45.504Z,1.80
2022-08-20T14:36:18.972Z,1.88
2022-08-20T14:38:51.070Z,1.40
2022-08-20T14:41:23.185Z,1.52
2022-08-20T14:43:55.271Z,1.92
2022-08-20T14:46:27.552Z,1.70
2022-08-20T14:49:00.707Z,1.70
2022-08-20T14:51:34.210Z,1.60
2022-08-20T14:54:06.303Z,2.10
2022-08-20T14:56:38.451Z,1.80
2022-08-20T14:59:10.546Z,1.80
2022-08-20T15:01:42.592Z,1.70
2022-08-20T15:04:14.699Z,1.92
2022-08-20T15:06:48.836Z,2.00
2022-08-20T15:09:21.132Z,2.38
2022-08-20T15:11:53.115Z,1.95
2022-08-20T15:14:26.218Z,2.20
2022-08-20T15:17:01.340Z,1.88
2022-08-20T15:19:33.429Z,1.90
2022-08-20T15:22:06.906Z,1.92
2022-08-20T15:24:39.006Z,2.10
2022-08-20T15:27:21.795Z,2.60
2022-08-20T15:29:54.534Z,2.33
2022-08-20T15:32:26.586Z,2.20
2022-08-20T15:34:58.679Z,1.77
2022-08-20T15:37:32.083Z,1.98
2022-08-20T15:40:09.123Z,1.70
2022-08-20T15:42:41.255Z,2.28
2022-08-20T15:45:14.066Z,2.15
2022-08-20T15:48:00.481Z,2.10
2022-08-20T15:50:48.767Z,1.90
2022-08-20T15:53:28.344Z,2.30
2022-08-20T15:56:08.844Z,2.45
2022-08-20T15:58:49.733Z,2.33
2022-08-20T16:01:47.431Z,2.20
2022-08-20T16:04:42.032Z,2.65
2022-08-20T16:07:20.510Z,2.92
2022-08-20T16:10:03.879Z,2.38
2022-08-20T16:12:39.516Z,2.45
2022-08-20T16:15:14.260Z,2.30
2022-08-20T16:17:51.121Z,2.22
2022-08-20T16:20:33.042Z,2.53
2022-08-20T16:23:08.820Z,2.80
2022-08-20T16:25:57.144Z,2.40
2022-08-20T16:28:37.551Z,2.72
2022-08-20T16:31:14.742Z,2.58
2022-08-20T16:33:53.795Z,2.97
2022-08-20T16:36:34.712Z,2.38
2022-08-20T16:39:10.794Z,2.60
2022-08-20T16:41:47.639Z,2.53
2022-08-20T16:44:28.727Z,2.92
2022-08-20T16:47:11.689Z,4.35
2022-08-20T16:49:53.716Z,3.03
2022-08-20T16:52:25.666Z,3.55
2022-08-20T16:54:58.323Z,3.30
2022-08-20T16:57:31.747Z,2.92
2022-08-20T17:00:12.246Z,3.10
2022-08-20T17:02:52.312Z,3.05
2022-08-20T17:08:01.947Z,3.10
2022-08-20T17:10:36.311Z,3.50
2022-08-20T17:13:27.968Z,3.53
2022-08-20T17:16:02.764Z,3.53
2022-08-20T17:18:37.927Z,3.60
2022-08-20T17:21:15.647Z,3.50
2022-08-20T17:23:56.229Z,4.68
2022-08-20T17:26:31.712Z,3.95
2022-08-20T17:29:13.543Z,3.65
2022-08-20T17:31:48.746Z,4.57
2022-08-20T17:34:23.524Z,4.22
2022-08-20T17:36:58.741Z,4.55
2022-08-20T17:39:31.962Z,4.45
2022-08-20T17:42:08.980Z,3.55
2022-08-20T17:44:47.324Z,4.25
2022-08-20T17:47:26.340Z,4.60
2022-08-20T17:50:04.629Z,4.07
2022-08-20T17:52:44.612Z,4.45
2022-08-20T17:55:17.798Z,4.95
2022-08-20T17:57:56.288Z,4.40
2022-08-20T18:00:29.786Z,4.32
2022-08-20T18:03:16.505Z,4.70
2022-08-20T18:05:55.090Z,4.00
2022-08-20T18:08:37.695Z,4.60
2022-08-20T18:11:20.226Z,4.85
2022-08-20T18:14:18.725Z,4.22
2022-08-20T18:17:13.766Z,5.40
2022-08-20T18:20:11.266Z,5.00
2022-08-20T18:22:47.468Z,4.80
2022-08-20T18:25:30.614Z,4.85
2022-08-20T18:28:08.895Z,4.75
2022-08-20T18:30:49.181Z,4.88
2022-08-20T18:33:30.860Z,4.90
2022-08-20T18:36:09.693Z,5.47
2022-08-20T18:38:42.508Z,5.35
2022-08-20T18:41:28.119Z,5.25
2022-08-20T18:44:06.566Z,5.53
2022-08-20T18:46:52.633Z,5.10
2022-08-20T18:49:32.679Z,5.40
2022-08-20T18:54:56.506Z,5.80
2022-08-20T18:57:34.054Z,5.47
2022-08-20T19:00:18.250Z,5.90
2022-08-20T19:02:57.542Z,5.25
2022-08-20T19:05:54.970Z,5.13
2022-08-20T19:08:37.598Z,5.53
2022-08-20T19:11:35.550Z,4.78
2022-08-20T19:14:20.767Z,5.13
2022-08-20T19:16:59.622Z,5.25
2022-08-20T19:19:33.118Z,5.78
2022-08-20T19:22:06.830Z,5.40
2022-08-20T19:24:44.193Z,5.25
2022-08-20T19:27:18.131Z,5.65
2022-08-20T19:29:57.112Z,5.03
2022-08-20T19:32:32.600Z,5.25
2022-08-20T19:35:07.810Z,5.57
2022-08-20T19:37:51.114Z,6.03
2022-08-20T19:40:28.780Z,5.50
2022-08-20T19:43:03.355Z,5.68
2022-08-20T19:45:39.417Z,5.55
2022-08-20T19:48:27.866Z,5.60
2022-08-20T19:51:06.533Z,4.97
2022-08-20T19:53:46.789Z,5.20
2022-08-20T19:58:59.804Z,4.75
2022-08-20T20:04:07.228Z,5.03
2022-08-20T20:06:45.574Z,5.47
2022-08-20T20:09:27.896Z,5.10
2022-08-20T20:12:08.304Z,5.57
2022-08-20T20:14:40.699Z,5.40
2022-08-20T20:17:22.405Z,4.85
2022-08-20T20:19:59.238Z,5.32
2022-08-20T20:22:33.792Z,4.95
2022-08-20T20:25:19.111Z,5.10
2022-08-20T20:27:54.088Z,5.22
2022-08-20T20:30:30.111Z,5.25
2022-08-20T20:33:13.253Z,5.93
2022-08-20T20:35:46.377Z,5.53
2022-08-20T20:38:26.543Z,5.78
2022-08-20T20:41:02.422Z,4.88
2022-08-20T20:43:37.455Z,5.18
2022-08-20T20:46:16.100Z,5.18
2022-08-20T20:48:50.200Z,5.38
2022-08-20T20:51:25.438Z,6.15
2022-08-20T20:54:00.042Z,5.13
2022-08-20T20:56:36.558Z,5.05
2022-08-20T20:59:10.212Z,5.65
2022-08-20T21:01:49.780Z,5.43
2022-08-20T21:04:23.881Z,5.22
2022-08-20T21:06:59.041Z,5.60
2022-08-20T21:09:31.065Z,5.85
2022-08-20T21:12:04.999Z,5.50
2022-08-20T21:14:37.269Z,5.25
2022-08-20T21:17:13.047Z,5.50
2022-08-20T21:19:45.512Z,5.30
2022-08-20T21:22:18.859Z,5.47
2022-08-20T21:24:51.532Z,5.95
2022-08-20T21:27:27.858Z,5.20
2022-08-20T21:30:00.179Z,5.65
2022-08-20T21:32:32.341Z,6.05
2022-08-20T21:35:04.884Z,5.60
2022-08-20T21:37:37.292Z,5.65
2022-08-20T21:40:11.594Z,5.40
2022-08-20T21:42:45.363Z,5.40
2022-08-20T21:45:19.589Z,5.90
2022-08-20T21:47:52.128Z,5.72
2022-08-20T21:50:25.710Z,5.75
2022-08-20T21:52:59.685Z,5.15
2022-08-20T21:55:39.374Z,5.07
2022-08-20T21:58:13.318Z,5.70
2022-08-20T22:00:55.496Z,5.40
2022-08-20T22:03:29.907Z,5.30
2022-08-20T22:06:06.010Z,5.25
2022-08-20T22:08:38.640Z,5.35
2022-08-20T22:11:11.627Z,5.88
2022-08-20T22:13:45.864Z,6.03
2022-08-20T22:16:20.485Z,5.97
2022-08-20T22:18:52.858Z,5.40
2022-08-20T22:21:27.355Z,5.32
2022-08-20T22:24:00.642Z,5.30
2022-08-20T22:26:36.226Z,5.53
2022-08-20T22:29:11.500Z,5.40
2022-08-20T22:31:44.417Z,5.95
2022-08-20T22:34:19.338Z,5.05
2022-08-20T22:36:53.883Z,6.15
2022-08-20T22:39:25.899Z,6.30
2022-08-20T22:41:58.007Z,5.88
2022-08-20T22:44:31.484Z,6.10
2022-08-20T22:47:07.557Z,5.82
2022-08-20T22:49:41.711Z,5.60
2022-08-20T22:52:13.698Z,5.18
2022-08-20T22:54:45.837Z,6.25
2022-08-20T22:57:20.314Z,6.00
2022-08-20T22:59:54.259Z,5.22
2022-08-20T23:02:26.539Z,5.80
2022-08-20T23:04:58.653Z,5.88
2022-08-20T23:07:31.150Z,5.20
2022-08-20T23:10:03.413Z,5.63
2022-08-20T23:12:35.583Z,5.63
2022-08-20T23:15:10.047Z,5.95
2022-08-20T23:17:42.312Z,5.80
2022-08-20T23:20:17.083Z,5.72
2022-08-20T23:22:49.066Z,5.88
2022-08-20T23:25:21.561Z,6.05
2022-08-20T23:27:55.674Z,5.50
2022-08-20T23:30:31.214Z,6.03
2022-08-20T23:33:03.569Z,5.60
2022-08-20T23:35:38.883Z,5.60
2022-08-20T23:38:11.394Z,5.43
2022-08-20T23:40:43.653Z,6.47
2022-08-20T23:43:15.868Z,5.70
2022-08-20T23:45:49.285Z,5.47
2022-08-20T23:48:21.360Z,5.63
2022-08-20T23:50:53.475Z,5.50
2022-08-20T23:53:25.647Z,5.45
2022-08-20T23:55:57.702Z,5.55
2022-08-20T23:58:29.791Z,5.97
